sensor_id;sensor_type;location;lat;lon;timestamp;P1;durP1;ratioP1;P2;durP2;ratioP2
19161;SDS011;9713;48.140;11.530;2023-06-19T00:03:28;11.70;;;9.20;;
19161;SDS011;9713;48.140;11.530;2023-06-19T00:07:11;13.10;;;10.05;;
19161;SDS011;9713;48.140;11.530;2023-06-19T00:10:54;12.30;;;9.52;;
19161;SDS011;9713;48.140;11.530;2023-06-19T00:14:37;11.90;;;9.38;;
19161;SDS011;9713;48.140;11.530;2023-06-19T00:18:20;9.95;;;8.90;;
19161;SDS011;9713;48.140;11.530;2023-06-19T00:22:05;13.25;;;9.95;;
19161;SDS011;9713;48.140;11.530;2023-06-19T00:25:47;11.75;;;9.55;;
19161;SDS011;9713;48.140;11.530;2023-06-19T00:29:31;9.52;;;8.52;;
19161;SDS011;9713;48.140;11.530;2023-06-19T00:33:14;9.95;;;8.80;;
19161;SDS011;9713;48.140;11.530;2023-06-19T00:36:57;10.38;;;8.70;;
19161;SDS011;9713;48.140;11.530;2023-06-19T00:40:42;10.13;;;9.05;;
19161;SDS011;9713;48.140;11.530;2023-06-19T00:44:25;14.63;;;9.32;;
19161;SDS011;9713;48.140;11.530;2023-06-19T00:48:07;10.15;;;8.82;;
19161;SDS011;9713;48.140;11.530;2023-06-19T00:51:51;10.73;;;9.02;;
19161;SDS011;9713;48.140;11.530;2023-06-19T00:55:34;11.27;;;9.20;;
19161;SDS011;9713;48.140;11.530;2023-06-19T00:59:19;10.65;;;9.35;;
19161;SDS011;9713;48.140;11.530;2023-06-19T01:03:02;13.07;;;9.00;;
19161;SDS011;9713;48.140;11.530;2023-06-19T01:06:46;9.80;;;8.50;;
19161;SDS011;9713;48.140;11.530;2023-06-19T01:10:40;11.90;;;9.05;;
19161;SDS011;9713;48.140;11.530;2023-06-19T01:14:26;10.38;;;9.25;;
19161;SDS011;9713;48.140;11.530;2023-06-19T01:18:12;11.63;;;9.55;;
19161;SDS011;9713;48.140;11.530;2023-06-19T01:21:55;10.05;;;8.77;;
19161;SDS011;9713;48.140;11.530;2023-06-19T01:25:39;13.75;;;9.38;;
19161;SDS011;9713;48.140;11.530;2023-06-19T01:29:22;10.75;;;8.80;;
19161;SDS011;9713;48.140;11.530;2023-06-19T01:33:07;11.82;;;9.20;;
19161;SDS011;9713;48.140;11.530;2023-06-19T01:36:53;10.63;;;9.45;;
19161;SDS011;9713;48.140;11.530;2023-06-19T01:40:39;10.98;;;9.25;;
19161;SDS011;9713;48.140;11.530;2023-06-19T01:44:26;10.50;;;9.40;;
19161;SDS011;9713;48.140;11.530;2023-06-19T01:48:09;13.23;;;9.55;;
19161;SDS011;9713;48.140;11.530;2023-06-19T01:51:51;11.65;;;9.73;;
19161;SDS011;9713;48.140;11.530;2023-06-19T01:55:34;11.52;;;9.27;;
19161;SDS011;9713;48.140;11.530;2023-06-19T01:59:18;10.85;;;9.63;;
19161;SDS011;9713;48.140;11.530;2023-06-19T02:03:02;14.95;;;9.05;;
19161;SDS011;9713;48.140;11.530;2023-06-19T02:06:45;11.68;;;9.82;;
19161;SDS011;9713;48.140;11.530;2023-06-19T02:10:28;10.57;;;9.48;;
19161;SDS011;9713;48.140;11.530;2023-06-19T02:14:11;11.05;;;9.15;;
19161;SDS011;9713;48.140;11.530;2023-06-19T02:17:56;11.82;;;9.85;;
19161;SDS011;9713;48.140;11.530;2023-06-19T02:21:39;11.20;;;9.38;;
19161;SDS011;9713;48.140;11.530;2023-06-19T02:25:21;14.60;;;9.90;;
19161;SDS011;9713;48.140;11.530;2023-06-19T02:29:04;12.10;;;9.32;;
19161;SDS011;9713;48.140;11.530;2023-06-19T02:32:47;9.90;;;8.90;;
19161;SDS011;9713;48.140;11.530;2023-06-19T02:36:31;12.70;;;9.73;;
19161;SDS011;9713;48.140;11.530;2023-06-19T02:40:14;13.73;;;9.18;;
19161;SDS011;9713;48.140;11.530;2023-06-19T02:43:58;10.40;;;8.95;;
19161;SDS011;9713;48.140;11.530;2023-06-19T02:47:41;12.57;;;9.52;;
19161;SDS011;9713;48.140;11.530;2023-06-19T02:51:24;13.30;;;9.73;;
19161;SDS011;9713;48.140;11.530;2023-06-19T02:55:08;11.35;;;9.57;;
19161;SDS011;9713;48.140;11.530;2023-06-19T02:58:51;12.20;;;9.85;;
19161;SDS011;9713;48.140;11.530;2023-06-19T03:02:34;12.88;;;9.88;;
19161;SDS011;9713;48.140;11.530;2023-06-19T03:06:17;10.50;;;9.40;;
19161;SDS011;9713;48.140;11.530;2023-06-19T03:09:59;12.27;;;9.70;;
19161;SDS011;9713;48.140;11.530;2023-06-19T03:13:47;11.77;;;9.77;;
19161;SDS011;9713;48.140;11.530;2023-06-19T03:17:32;13.15;;;10.70;;
19161;SDS011;9713;48.140;11.530;2023-06-19T03:21:14;15.15;;;10.77;;
19161;SDS011;9713;48.140;11.530;2023-06-19T03:24:58;12.60;;;10.68;;
19161;SDS011;9713;48.140;11.530;2023-06-19T03:28:41;11.90;;;10.48;;
19161;SDS011;9713;48.140;11.530;2023-06-19T03:32:26;14.52;;;10.70;;
19161;SDS011;9713;48.140;11.530;2023-06-19T03:36:12;13.27;;;10.43;;
19161;SDS011;9713;48.140;11.530;2023-06-19T03:39:55;11.73;;;10.07;;
19161;SDS011;9713;48.140;11.530;2023-06-19T03:43:38;11.82;;;10.30;;
19161;SDS011;9713;48.140;11.530;2023-06-19T03:47:20;10.73;;;9.63;;
19161;SDS011;9713;48.140;11.530;2023-06-19T03:51:05;11.63;;;10.27;;
19161;SDS011;9713;48.140;11.530;2023-06-19T03:54:47;13.82;;;10.05;;
19161;SDS011;9713;48.140;11.530;2023-06-19T03:58:30;10.68;;;9.15;;
19161;SDS011;9713;48.140;11.530;2023-06-19T04:02:13;12.40;;;10.00;;
19161;SDS011;9713;48.140;11.530;2023-06-19T04:06:11;11.43;;;9.68;;
19161;SDS011;9713;48.140;11.530;2023-06-19T04:09:54;12.32;;;9.93;;
19161;SDS011;9713;48.140;11.530;2023-06-19T04:13:37;14.10;;;10.63;;
19161;SDS011;9713;48.140;11.530;2023-06-19T04:17:20;10.93;;;9.55;;
19161;SDS011;9713;48.140;11.530;2023-06-19T04:21:03;12.02;;;9.80;;
19161;SDS011;9713;48.140;11.530;2023-06-19T04:24:47;13.27;;;10.50;;
19161;SDS011;9713;48.140;11.530;2023-06-19T04:28:29;15.50;;;10.40;;
19161;SDS011;9713;48.140;11.530;2023-06-19T04:32:12;15.13;;;10.52;;
19161;SDS011;9713;48.140;11.530;2023-06-19T04:35:55;12.88;;;10.75;;
19161;SDS011;9713;48.140;11.530;2023-06-19T04:39:38;15.25;;;11.38;;
19161;SDS011;9713;48.140;11.530;2023-06-19T04:43:23;13.13;;;10.38;;
19161;SDS011;9713;48.140;11.530;2023-06-19T04:47:08;14.85;;;11.25;;
19161;SDS011;9713;48.140;11.530;2023-06-19T04:50:51;16.13;;;10.93;;
19161;SDS011;9713;48.140;11.530;2023-06-19T04:54:37;18.55;;;11.85;;
19161;SDS011;9713;48.140;11.530;2023-06-19T04:58:24;15.57;;;11.18;;
19161;SDS011;9713;48.140;11.530;2023-06-19T05:02:07;15.20;;;11.15;;
19161;SDS011;9713;48.140;11.530;2023-06-19T05:05:52;15.55;;;10.68;;
19161;SDS011;9713;48.140;11.530;2023-06-19T05:09:35;14.65;;;10.57;;
19161;SDS011;9713;48.140;11.530;2023-06-19T05:13:18;16.23;;;11.57;;
19161;SDS011;9713;48.140;11.530;2023-06-19T05:17:04;14.82;;;11.32;;
19161;SDS011;9713;48.140;11.530;2023-06-19T05:20:48;13.77;;;11.13;;
19161;SDS011;9713;48.140;11.530;2023-06-19T05:24:30;12.18;;;10.55;;
19161;SDS011;9713;48.140;11.530;2023-06-19T05:28:13;13.52;;;11.05;;
19161;SDS011;9713;48.140;11.530;2023-06-19T05:31:56;17.08;;;11.50;;
19161;SDS011;9713;48.140;11.530;2023-06-19T05:35:40;12.32;;;9.57;;
19161;SDS011;9713;48.140;11.530;2023-06-19T05:39:23;11.40;;;9.68;;
19161;SDS011;9713;48.140;11.530;2023-06-19T05:43:06;14.68;;;9.40;;
19161;SDS011;9713;48.140;11.530;2023-06-19T05:46:49;12.45;;;9.90;;
19161;SDS011;9713;48.140;11.530;2023-06-19T05:50:32;14.65;;;9.43;;
19161;SDS011;9713;48.140;11.530;2023-06-19T05:54:16;13.75;;;8.73;;
19161;SDS011;9713;48.140;11.530;2023-06-19T05:57:59;14.35;;;8.30;;
19161;SDS011;9713;48.140;11.530;2023-06-19T06:01:42;11.52;;;7.78;;
19161;SDS011;9713;48.140;11.530;2023-06-19T06:05:25;12.15;;;8.07;;
19161;SDS011;9713;48.140;11.530;2023-06-19T06:09:08;13.50;;;8.30;;
19161;SDS011;9713;48.140;11.530;2023-06-19T06:12:53;20.63;;;8.30;;
19161;SDS011;9713;48.140;11.530;2023-06-19T06:16:36;10.45;;;7.70;;
19161;SDS011;9713;48.140;11.530;2023-06-19T06:20:19;11.07;;;8.50;;
19161;SDS011;9713;48.140;11.530;2023-06-19T06:24:03;10.52;;;7.60;;
19161;SDS011;9713;48.140;11.530;2023-06-19T06:27:47;9.50;;;7.43;;
19161;SDS011;9713;48.140;11.530;2023-06-19T06:31:31;8.55;;;7.15;;
19161;SDS011;9713;48.140;11.530;2023-06-19T06:35:14;12.40;;;7.90;;
19161;SDS011;9713;48.140;11.530;2023-06-19T06:38:57;14.00;;;7.40;;
19161;SDS011;9713;48.140;11.530;2023-06-19T06:42:40;10.85;;;7.55;;
19161;SDS011;9713;48.140;11.530;2023-06-19T06:46:23;15.10;;;8.00;;
19161;SDS011;9713;48.140;11.530;2023-06-19T06:50:08;9.52;;;7.50;;
19161;SDS011;9713;48.140;11.530;2023-06-19T06:53:52;8.80;;;7.05;;
19161;SDS011;9713;48.140;11.530;2023-06-19T06:57:34;14.40;;;7.25;;
19161;SDS011;9713;48.140;11.530;2023-06-19T07:01:17;12.32;;;6.93;;
19161;SDS011;9713;48.140;11.530;2023-06-19T07:05:00;10.73;;;7.55;;
19161;SDS011;9713;48.140;11.530;2023-06-19T07:08:44;10.63;;;7.28;;
19161;SDS011;9713;48.140;11.530;2023-06-19T07:12:28;10.93;;;6.90;;
19161;SDS011;9713;48.140;11.530;2023-06-19T07:16:11;9.13;;;6.82;;
19161;SDS011;9713;48.140;11.530;2023-06-19T07:19:54;9.27;;;7.07;;
19161;SDS011;9713;48.140;11.530;2023-06-19T07:23:37;10.40;;;6.82;;
19161;SDS011;9713;48.140;11.530;2023-06-19T07:27:21;10.70;;;6.45;;
19161;SDS011;9713;48.140;11.530;2023-06-19T07:31:05;7.80;;;6.40;;
19161;SDS011;9713;48.140;11.530;2023-06-19T07:34:48;7.20;;;5.80;;
19161;SDS011;9713;48.140;11.530;2023-06-19T07:38:31;6.25;;;5.65;;
19161;SDS011;9713;48.140;11.530;2023-06-19T07:42:14;8.75;;;6.07;;
19161;SDS011;9713;48.140;11.530;2023-06-19T07:45:59;6.03;;;5.20;;
19161;SDS011;9713;48.140;11.530;2023-06-19T07:49:42;6.18;;;5.47;;
19161;SDS011;9713;48.140;11.530;2023-06-19T07:53:25;10.63;;;5.55;;
19161;SDS011;9713;48.140;11.530;2023-06-19T07:57:07;8.57;;;5.25;;
19161;SDS011;9713;48.140;11.530;2023-06-19T08:00:50;7.80;;;5.72;;
19161;SDS011;9713;48.140;11.530;2023-06-19T08:04:34;6.60;;;5.72;;
19161;SDS011;9713;48.140;11.530;2023-06-19T08:08:17;7.13;;;5.70;;
19161;SDS011;9713;48.140;11.530;2023-06-19T08:12:00;5.93;;;5.32;;
19161;SDS011;9713;48.140;11.530;2023-06-19T08:15:43;7.05;;;5.63;;
19161;SDS011;9713;48.140;11.530;2023-06-19T08:19:27;6.22;;;5.32;;
19161;SDS011;9713;48.140;11.530;2023-06-19T08:23:11;6.22;;;5.40;;
19161;SDS011;9713;48.140;11.530;2023-06-19T08:26:54;6.15;;;5.18;;
19161;SDS011;9713;48.140;11.530;2023-06-19T08:30:37;6.40;;;5.47;;
19161;SDS011;9713;48.140;11.530;2023-06-19T08:34:20;7.18;;;5.97;;
19161;SDS011;9713;48.140;11.530;2023-06-19T08:38:02;7.53;;;6.20;;
19161;SDS011;9713;48.140;11.530;2023-06-19T08:41:47;8.85;;;5.47;;
19161;SDS011;9713;48.140;11.530;2023-06-19T08:45:30;7.15;;;5.72;;
19161;SDS011;9713;48.140;11.530;2023-06-19T08:49:13;6.47;;;5.75;;
19161;SDS011;9713;48.140;11.530;2023-06-19T08:52:56;6.97;;;5.50;;
19161;SDS011;9713;48.140;11.530;2023-06-19T08:56:38;7.00;;;5.68;;
19161;SDS011;9713;48.140;11.530;2023-06-19T09:00:26;6.30;;;5.70;;
19161;SDS011;9713;48.140;11.530;2023-06-19T09:04:12;6.07;;;4.75;;
19161;SDS011;9713;48.140;11.530;2023-06-19T09:07:57;8.38;;;3.80;;
19161;SDS011;9713;48.140;11.530;2023-06-19T09:11:42;5.10;;;3.70;;
19161;SDS011;9713;48.140;11.530;2023-06-19T09:15:30;4.97;;;4.40;;
19161;SDS011;9713;48.140;11.530;2023-06-19T09:19:19;5.47;;;4.97;;
19161;SDS011;9713;48.140;11.530;2023-06-19T09:23:02;8.80;;;4.85;;
19161;SDS011;9713;48.140;11.530;2023-06-19T09:26:45;5.95;;;4.70;;
19161;SDS011;9713;48.140;11.530;2023-06-19T09:30:27;6.97;;;4.50;;
19161;SDS011;9713;48.140;11.530;2023-06-19T09:34:12;5.68;;;5.00;;
19161;SDS011;9713;48.140;11.530;2023-06-19T09:37:55;6.95;;;5.32;;
19161;SDS011;9713;48.140;11.530;2023-06-19T09:41:38;7.25;;;5.53;;
19161;SDS011;9713;48.140;11.530;2023-06-19T09:45:22;10.50;;;5.30;;
19161;SDS011;9713;48.140;11.530;2023-06-19T09:49:07;9.32;;;5.43;;
19161;SDS011;9713;48.140;11.530;2023-06-19T09:52:51;6.85;;;5.53;;
19161;SDS011;9713;48.140;11.530;2023-06-19T09:56:34;6.50;;;5.88;;
19161;SDS011;9713;48.140;11.530;2023-06-19T10:00:16;7.32;;;5.88;;
19161;SDS011;9713;48.140;11.530;2023-06-19T10:04:06;6.97;;;5.55;;
19161;SDS011;9713;48.140;11.530;2023-06-19T10:07:52;6.40;;;5.80;;
19161;SDS011;9713;48.140;11.530;2023-06-19T10:11:45;6.60;;;5.50;;
19161;SDS011;9713;48.140;11.530;2023-06-19T10:15:29;8.20;;;5.32;;
19161;SDS011;9713;48.140;11.530;2023-06-19T10:19:14;5.80;;;5.28;;
19161;SDS011;9713;48.140;11.530;2023-06-19T10:22:59;7.05;;;5.50;;
19161;SDS011;9713;48.140;11.530;2023-06-19T10:26:55;6.85;;;5.80;;
19161;SDS011;9713;48.140;11.530;2023-06-19T10:30:38;11.15;;;5.72;;
19161;SDS011;9713;48.140;11.530;2023-06-19T10:34:22;5.68;;;5.15;;
19161;SDS011;9713;48.140;11.530;2023-06-19T10:38:15;6.22;;;5.43;;
19161;SDS011;9713;48.140;11.530;2023-06-19T10:41:58;7.28;;;5.50;;
19161;SDS011;9713;48.140;11.530;2023-06-19T10:45:42;5.38;;;4.88;;
19161;SDS011;9713;48.140;11.530;2023-06-19T10:49:27;5.95;;;5.10;;
19161;SDS011;9713;48.140;11.530;2023-06-19T10:53:10;7.85;;;5.43;;
19161;SDS011;9713;48.140;11.530;2023-06-19T10:56:52;5.15;;;4.57;;
19161;SDS011;9713;48.140;11.530;2023-06-19T11:00:35;5.78;;;4.60;;
19161;SDS011;9713;48.140;11.530;2023-06-19T11:04:18;6.47;;;5.47;;
19161;SDS011;9713;48.140;11.530;2023-06-19T11:08:02;6.03;;;4.88;;
19161;SDS011;9713;48.140;11.530;2023-06-19T11:11:47;5.13;;;4.63;;
19161;SDS011;9713;48.140;11.530;2023-06-19T11:15:30;5.82;;;4.63;;
19161;SDS011;9713;48.140;11.530;2023-06-19T11:19:15;7.57;;;4.90;;
19161;SDS011;9713;48.140;11.530;2023-06-19T11:22:59;4.82;;;4.20;;
19161;SDS011;9713;48.140;11.530;2023-06-19T11:26:45;5.80;;;4.68;;
19161;SDS011;9713;48.140;11.530;2023-06-19T11:30:33;4.80;;;4.30;;
19161;SDS011;9713;48.140;11.530;2023-06-19T11:34:17;4.38;;;3.97;;
19161;SDS011;9713;48.140;11.530;2023-06-19T11:38:04;4.38;;;3.97;;
19161;SDS011;9713;48.140;11.530;2023-06-19T11:41:49;5.22;;;4.43;;
19161;SDS011;9713;48.140;11.530;2023-06-19T11:45:44;6.95;;;4.32;;
19161;SDS011;9713;48.140;11.530;2023-06-19T11:49:28;4.25;;;3.85;;
19161;SDS011;9713;48.140;11.530;2023-06-19T11:53:17;5.88;;;4.35;;
19161;SDS011;9713;48.140;11.530;2023-06-19T11:57:01;4.93;;;4.00;;
19161;SDS011;9713;48.140;11.530;2023-06-19T12:00:44;4.63;;;3.88;;
19161;SDS011;9713;48.140;11.530;2023-06-19T12:04:27;4.82;;;4.10;;
19161;SDS011;9713;48.140;11.530;2023-06-19T12:08:10;4.97;;;3.72;;
19161;SDS011;9713;48.140;11.530;2023-06-19T12:11:53;3.95;;;3.55;;
19161;SDS011;9713;48.140;11.530;2023-06-19T12:15:37;5.38;;;4.22;;
19161;SDS011;9713;48.140;11.530;2023-06-19T12:19:20;4.22;;;3.83;;
19161;SDS011;9713;48.140;11.530;2023-06-19T12:23:03;4.75;;;3.97;;
19161;SDS011;9713;48.140;11.530;2023-06-19T12:26:46;5.13;;;3.65;;
19161;SDS011;9713;48.140;11.530;2023-06-19T12:30:28;4.78;;;4.13;;
19161;SDS011;9713;48.140;11.530;2023-06-19T12:34:13;4.22;;;3.83;;
19161;SDS011;9713;48.140;11.530;2023-06-19T12:38:01;4.50;;;4.10;;
19161;SDS011;9713;48.140;11.530;2023-06-19T12:41:47;6.63;;;3.60;;
19161;SDS011;9713;48.140;11.530;2023-06-19T12:45:30;4.15;;;3.65;;
19161;SDS011;9713;48.140;11.530;2023-06-19T12:49:14;5.40;;;3.90;;
19161;SDS011;9713;48.140;11.530;2023-06-19T12:52:57;5.03;;;3.58;;
19161;SDS011;9713;48.140;11.530;2023-06-19T12:56:40;3.72;;;3.42;;
19161;SDS011;9713;48.140;11.530;2023-06-19T13:00:23;5.25;;;3.53;;
19161;SDS011;9713;48.140;11.530;2023-06-19T13:04:06;3.83;;;3.50;;
19161;SDS011;9713;48.140;11.530;2023-06-19T13:07:50;4.15;;;3.72;;
19161;SDS011;9713;48.140;11.530;2023-06-19T13:11:33;5.55;;;4.25;;
19161;SDS011;9713;48.140;11.530;2023-06-19T13:15:16;5.20;;;3.65;;
19161;SDS011;9713;48.140;11.530;2023-06-19T13:18:59;5.32;;;3.65;;
19161;SDS011;9713;48.140;11.530;2023-06-19T13:22:42;4.85;;;3.88;;
19161;SDS011;9713;48.140;11.530;2023-06-19T13:26:26;4.63;;;4.22;;
19161;SDS011;9713;48.140;11.530;2023-06-19T13:30:10;5.43;;;3.92;;
19161;SDS011;9713;48.140;11.530;2023-06-19T13:33:54;5.88;;;4.20;;
19161;SDS011;9713;48.140;11.530;2023-06-19T13:37:37;4.57;;;4.18;;
19161;SDS011;9713;48.140;11.530;2023-06-19T13:41:21;6.75;;;4.38;;
19161;SDS011;9713;48.140;11.530;2023-06-19T13:45:06;4.47;;;4.05;;
19161;SDS011;9713;48.140;11.530;2023-06-19T13:48:50;5.53;;;4.25;;
19161;SDS011;9713;48.140;11.530;2023-06-19T13:52:33;3.97;;;3.50;;
19161;SDS011;9713;48.140;11.530;2023-06-19T13:56:16;4.30;;;3.30;;
19161;SDS011;9713;48.140;11.530;2023-06-19T13:59:59;5.25;;;3.47;;
19161;SDS011;9713;48.140;11.530;2023-06-19T14:03:43;5.88;;;3.70;;
19161;SDS011;9713;48.140;11.530;2023-06-19T14:07:26;5.57;;;3.22;;
19161;SDS011;9713;48.140;11.530;2023-06-19T14:11:08;4.30;;;3.60;;
19161;SDS011;9713;48.140;11.530;2023-06-19T14:14:51;5.20;;;3.90;;
19161;SDS011;9713;48.140;11.530;2023-06-19T14:18:34;7.35;;;3.50;;
19161;SDS011;9713;48.140;11.530;2023-06-19T14:22:19;4.18;;;3.67;;
19161;SDS011;9713;48.140;11.530;2023-06-19T14:26:02;4.65;;;4.15;;
19161;SDS011;9713;48.140;11.530;2023-06-19T14:29:45;4.20;;;3.80;;
19161;SDS011;9713;48.140;11.530;2023-06-19T14:33:28;7.30;;;4.40;;
19161;SDS011;9713;48.140;11.530;2023-06-19T14:37:11;8.23;;;3.92;;
19161;SDS011;9713;48.140;11.530;2023-06-19T14:40:55;8.05;;;3.67;;
19161;SDS011;9713;48.140;11.530;2023-06-19T14:44:39;8.30;;;4.20;;
19161;SDS011;9713;48.140;11.530;2023-06-19T14:48:22;3.88;;;3.30;;
19161;SDS011;9713;48.140;11.530;2023-06-19T14:52:05;6.15;;;3.28;;
19161;SDS011;9713;48.140;11.530;2023-06-19T14:55:49;5.82;;;3.20;;
19161;SDS011;9713;48.140;11.530;2023-06-19T14:59:33;5.70;;;3.15;;
19161;SDS011;9713;48.140;11.530;2023-06-19T15:03:16;4.28;;;3.53;;
19161;SDS011;9713;48.140;11.530;2023-06-19T15:06:59;4.63;;;3.35;;
19161;SDS011;9713;48.140;11.530;2023-06-19T15:10:43;4.30;;;3.80;;
19161;SDS011;9713;48.140;11.530;2023-06-19T15:14:26;5.97;;;3.15;;
19161;SDS011;9713;48.140;11.530;2023-06-19T15:18:10;7.28;;;3.53;;
19161;SDS011;9713;48.140;11.530;2023-06-19T15:21:53;6.90;;;3.63;;
19161;SDS011;9713;48.140;11.530;2023-06-19T15:25:36;12.27;;;6.18;;
19161;SDS011;9713;48.140;11.530;2023-06-19T15:29:18;4.65;;;3.45;;
19161;SDS011;9713;48.140;11.530;2023-06-19T15:33:01;10.20;;;7.63;;
19161;SDS011;9713;48.140;11.530;2023-06-19T15:36:46;3.00;;;2.80;;
19161;SDS011;9713;48.140;11.530;2023-06-19T15:40:28;7.53;;;6.72;;
19161;SDS011;9713;48.140;11.530;2023-06-19T15:44:13;3.38;;;2.88;;
19161;SDS011;9713;48.140;11.530;2023-06-19T15:47:56;4.15;;;3.05;;
19161;SDS011;9713;48.140;11.530;2023-06-19T15:51:39;4.20;;;2.70;;
19161;SDS011;9713;48.140;11.530;2023-06-19T15:55:23;6.55;;;3.10;;
19161;SDS011;9713;48.140;11.530;2023-06-19T15:59:07;3.35;;;3.15;;
19161;SDS011;9713;48.140;11.530;2023-06-19T16:02:50;3.67;;;2.63;;
19161;SDS011;9713;48.140;11.530;2023-06-19T16:06:33;3.33;;;2.55;;
19161;SDS011;9713;48.140;11.530;2023-06-19T16:10:16;3.70;;;2.80;;
19161;SDS011;9713;48.140;11.530;2023-06-19T16:14:01;5.20;;;2.88;;
19161;SDS011;9713;48.140;11.530;2023-06-19T16:17:44;2.90;;;2.70;;
19161;SDS011;9713;48.140;11.530;2023-06-19T16:21:27;3.67;;;2.83;;
19161;SDS011;9713;48.140;11.530;2023-06-19T16:25:12;3.28;;;2.97;;
19161;SDS011;9713;48.140;11.530;2023-06-19T16:28:55;3.05;;;2.75;;
19161;SDS011;9713;48.140;11.530;2023-06-19T16:32:39;4.45;;;2.80;;
19161;SDS011;9713;48.140;11.530;2023-06-19T16:36:22;5.78;;;2.75;;
19161;SDS011;9713;48.140;11.530;2023-06-19T16:40:06;3.20;;;2.97;;
19161;SDS011;9713;48.140;11.530;2023-06-19T16:43:49;7.25;;;3.60;;
19161;SDS011;9713;48.140;11.530;2023-06-19T16:47:32;5.57;;;3.80;;
19161;SDS011;9713;48.140;11.530;2023-06-19T16:51:16;5.28;;;4.47;;
19161;SDS011;9713;48.140;11.530;2023-06-19T16:55:01;6.80;;;4.57;;
19161;SDS011;9713;48.140;11.530;2023-06-19T16:58:44;5.13;;;4.63;;
19161;SDS011;9713;48.140;11.530;2023-06-19T17:02:27;5.88;;;4.45;;
19161;SDS011;9713;48.140;11.530;2023-06-19T17:06:10;5.38;;;3.80;;
19161;SDS011;9713;48.140;11.530;2023-06-19T17:09:55;7.28;;;4.10;;
19161;SDS011;9713;48.140;11.530;2023-06-19T17:13:38;4.32;;;3.58;;
19161;SDS011;9713;48.140;11.530;2023-06-19T17:17:21;5.00;;;3.78;;
19161;SDS011;9713;48.140;11.530;2023-06-19T17:21:04;5.38;;;3.80;;
19161;SDS011;9713;48.140;11.530;2023-06-19T17:24:47;6.47;;;4.15;;
19161;SDS011;9713;48.140;11.530;2023-06-19T17:28:31;6.25;;;3.85;;
19161;SDS011;9713;48.140;11.530;2023-06-19T17:32:15;4.93;;;4.13;;
19161;SDS011;9713;48.140;11.530;2023-06-19T17:35:58;4.15;;;3.75;;
19161;SDS011;9713;48.140;11.530;2023-06-19T17:39:41;6.93;;;4.63;;
19161;SDS011;9713;48.140;11.530;2023-06-19T17:43:23;8.63;;;4.13;;
19161;SDS011;9713;48.140;11.530;2023-06-19T17:47:08;8.10;;;6.65;;
19161;SDS011;9713;48.140;11.530;2023-06-19T17:50:51;12.75;;;8.40;;
19161;SDS011;9713;48.140;11.530;2023-06-19T17:54:33;16.00;;;9.57;;
19161;SDS011;9713;48.140;11.530;2023-06-19T17:58:16;9.65;;;7.22;;
19161;SDS011;9713;48.140;11.530;2023-06-19T18:02:03;5.47;;;4.90;;
19161;SDS011;9713;48.140;11.530;2023-06-19T18:05:47;9.10;;;4.85;;
19161;SDS011;9713;48.140;11.530;2023-06-19T18:09:30;7.07;;;4.75;;
19161;SDS011;9713;48.140;11.530;2023-06-19T18:13:13;7.10;;;5.10;;
19161;SDS011;9713;48.140;11.530;2023-06-19T18:16:56;6.10;;;4.82;;
19161;SDS011;9713;48.140;11.530;2023-06-19T18:20:42;6.20;;;4.75;;
19161;SDS011;9713;48.140;11.530;2023-06-19T18:24:27;6.70;;;4.70;;
19161;SDS011;9713;48.140;11.530;2023-06-19T18:28:10;6.80;;;4.68;;
19161;SDS011;9713;48.140;11.530;2023-06-19T18:31:52;4.88;;;4.32;;
19161;SDS011;9713;48.140;11.530;2023-06-19T18:35:35;7.00;;;5.95;;
19161;SDS011;9713;48.140;11.530;2023-06-19T18:39:19;8.82;;;5.00;;
19161;SDS011;9713;48.140;11.530;2023-06-19T18:43:03;8.65;;;5.30;;
19161;SDS011;9713;48.140;11.530;2023-06-19T18:46:46;11.43;;;7.88;;
19161;SDS011;9713;48.140;11.530;2023-06-19T18:50:31;12.07;;;5.40;;
19161;SDS011;9713;48.140;11.530;2023-06-19T18:54:15;6.32;;;5.60;;
19161;SDS011;9713;48.140;11.530;2023-06-19T18:57:57;6.80;;;5.45;;
19161;SDS011;9713;48.140;11.530;2023-06-19T19:01:42;10.02;;;5.40;;
19161;SDS011;9713;48.140;11.530;2023-06-19T19:05:25;11.23;;;5.80;;
19161;SDS011;9713;48.140;11.530;2023-06-19T19:09:07;6.72;;;5.60;;
19161;SDS011;9713;48.140;11.530;2023-06-19T19:12:50;9.88;;;6.50;;
19161;SDS011;9713;48.140;11.530;2023-06-19T19:16:33;10.55;;;6.88;;
19161;SDS011;9713;48.140;11.530;2023-06-19T19:20:17;8.05;;;5.40;;
19161;SDS011;9713;48.140;11.530;2023-06-19T19:24:00;7.55;;;6.65;;
19161;SDS011;9713;48.140;11.530;2023-06-19T19:27:43;8.38;;;6.20;;
19161;SDS011;9713;48.140;11.530;2023-06-19T19:31:26;9.02;;;6.28;;
19161;SDS011;9713;48.140;11.530;2023-06-19T19:35:09;11.40;;;6.43;;
19161;SDS011;9713;48.140;11.530;2023-06-19T19:38:53;7.97;;;6.45;;
19161;SDS011;9713;48.140;11.530;2023-06-19T19:42:36;8.40;;;6.65;;
19161;SDS011;9713;48.140;11.530;2023-06-19T19:46:19;7.43;;;6.63;;
19161;SDS011;9713;48.140;11.530;2023-06-19T19:50:02;8.38;;;6.72;;
19161;SDS011;9713;48.140;11.530;2023-06-19T19:53:45;9.77;;;7.38;;
19161;SDS011;9713;48.140;11.530;2023-06-19T19:57:29;11.68;;;7.93;;
19161;SDS011;9713;48.140;11.530;2023-06-19T20:01:12;9.85;;;8.00;;
19161;SDS011;9713;48.140;11.530;2023-06-19T20:04:55;9.52;;;8.40;;
19161;SDS011;9713;48.140;11.530;2023-06-19T20:08:38;10.55;;;9.13;;
19161;SDS011;9713;48.140;11.530;2023-06-19T20:12:24;17.60;;;13.57;;
19161;SDS011;9713;48.140;11.530;2023-06-19T20:16:08;10.50;;;8.98;;
19161;SDS011;9713;48.140;11.530;2023-06-19T20:19:51;10.50;;;9.40;;
19161;SDS011;9713;48.140;11.530;2023-06-19T20:23:34;9.68;;;8.73;;
19161;SDS011;9713;48.140;11.530;2023-06-19T20:27:17;12.60;;;9.02;;
19161;SDS011;9713;48.140;11.530;2023-06-19T20:31:01;10.38;;;8.93;;
19161;SDS011;9713;48.140;11.530;2023-06-19T20:34:54;9.63;;;8.68;;
19161;SDS011;9713;48.140;11.530;2023-06-19T20:38:37;10.93;;;9.75;;
19161;SDS011;9713;48.140;11.530;2023-06-19T20:42:21;10.50;;;9.30;;
19161;SDS011;9713;48.140;11.530;2023-06-19T20:46:04;10.02;;;9.02;;
19161;SDS011;9713;48.140;11.530;2023-06-19T20:49:50;11.20;;;8.90;;
19161;SDS011;9713;48.140;11.530;2023-06-19T20:53:45;12.82;;;9.85;;
19161;SDS011;9713;48.140;11.530;2023-06-19T20:57:32;11.05;;;9.90;;
19161;SDS011;9713;48.140;11.530;2023-06-19T21:01:22;12.40;;;9.23;;
19161;SDS011;9713;48.140;11.530;2023-06-19T21:05:12;10.55;;;8.68;;
19161;SDS011;9713;48.140;11.530;2023-06-19T21:08:56;8.73;;;7.30;;
19161;SDS011;9713;48.140;11.530;2023-06-19T21:12:40;9.00;;;6.50;;
19161;SDS011;9713;48.140;11.530;2023-06-19T21:16:23;7.80;;;6.13;;
19161;SDS011;9713;48.140;11.530;2023-06-19T21:20:07;9.00;;;5.78;;
19161;SDS011;9713;48.140;11.530;2023-06-19T21:23:52;7.18;;;4.90;;
19161;SDS011;9713;48.140;11.530;2023-06-19T21:27:35;21.45;;;5.78;;
19161;SDS011;9713;48.140;11.530;2023-06-19T21:31:18;7.18;;;4.93;;
19161;SDS011;9713;48.140;11.530;2023-06-19T21:35:02;4.82;;;4.15;;
19161;SDS011;9713;48.140;11.530;2023-06-19T21:38:56;6.20;;;3.83;;
19161;SDS011;9713;48.140;11.530;2023-06-19T21:43:00;6.07;;;3.22;;
19161;SDS011;9713;48.140;11.530;2023-06-19T21:46:43;4.20;;;2.80;;
19161;SDS011;9713;48.140;11.530;2023-06-19T21:50:28;3.17;;;2.53;;
19161;SDS011;9713;48.140;11.530;2023-06-19T21:54:22;2.78;;;2.53;;
19161;SDS011;9713;48.140;11.530;2023-06-19T21:58:05;2.65;;;2.20;;
19161;SDS011;9713;48.140;11.530;2023-06-19T22:01:51;8.20;;;2.63;;
19161;SDS011;9713;48.140;11.530;2023-06-19T22:05:33;2.92;;;2.13;;
19161;SDS011;9713;48.140;11.530;2023-06-19T22:09:16;2.55;;;2.13;;
19161;SDS011;9713;48.140;11.530;2023-06-19T22:13:00;3.65;;;2.30;;
19161;SDS011;9713;48.140;11.530;2023-06-19T22:16:43;3.10;;;2.10;;
19161;SDS011;9713;48.140;11.530;2023-06-19T22:20:29;4.43;;;2.22;;